createdAt,value
2022-12-28T00:01:32.680Z,5.57
2022-12-28T00:04:03.064Z,5.83
2022-12-28T00:06:29.346Z,6.27
2022-12-28T00:08:57.009Z,5.50
2022-12-28T00:11:27.911Z,6.00
2022-12-28T00:13:59.869Z,5.37
2022-12-28T00:16:31.639Z,5.87
2022-12-28T00:19:00.833Z,5.63
2022-12-28T00:21:28.567Z,5.73
2022-12-28T00:23:58.417Z,5.23
2022-12-28T00:26:27.694Z,6.20
2022-12-28T00:28:58.300Z,5.27
2022-12-28T00:31:30.413Z,5.70
2022-12-28T00:33:56.650Z,5.07
2022-12-28T00:36:22.765Z,5.47
2022-12-28T00:38:48.893Z,5.73
2022-12-28T00:41:16.122Z,5.30
2022-12-28T00:43:42.566Z,5.57
2022-12-28T00:46:09.790Z,6.37
2022-12-28T00:48:35.926Z,6.27
2022-12-28T00:51:13.227Z,5.57
2022-12-28T00:53:39.902Z,5.97
2022-12-28T00:56:14.816Z,5.53
2022-12-28T00:58:41.205Z,5.93
2022-12-28T01:01:22.966Z,5.43
2022-12-28T01:03:50.203Z,5.40
2022-12-28T01:06:19.546Z,5.40
2022-12-28T01:08:46.679Z,5.73
2022-12-28T01:11:23.613Z,5.80
2022-12-28T01:13:51.990Z,5.27
2022-12-28T01:16:22.969Z,6.17
2022-12-28T01:18:53.833Z,5.40
2022-12-28T01:21:23.515Z,6.00
2022-12-28T01:23:57.693Z,5.43
2022-12-28T01:26:25.168Z,5.70
2022-12-28T01:28:51.555Z,4.47
2022-12-28T01:31:19.970Z,4.90
2022-12-28T01:33:46.907Z,4.63
2022-12-28T01:36:21.144Z,5.00
2022-12-28T01:38:52.162Z,4.57
2022-12-28T01:41:20.177Z,4.80
2022-12-28T01:44:06.530Z,4.80
2022-12-28T01:46:44.874Z,4.93
2022-12-28T01:49:36.072Z,4.87
2022-12-28T01:52:12.452Z,4.63
2022-12-28T01:54:55.754Z,5.63
2022-12-28T01:57:28.542Z,5.07
2022-12-28T02:00:05.463Z,5.53
2022-12-28T02:02:43.202Z,5.30
2022-12-28T02:05:10.239Z,4.97
2022-12-28T02:07:51.687Z,5.17
2022-12-28T02:10:41.687Z,4.90
2022-12-28T02:13:06.627Z,4.80
2022-12-28T02:15:32.806Z,5.27
2022-12-28T02:17:59.878Z,5.30
2022-12-28T02:20:40.177Z,4.80
2022-12-28T02:23:37.821Z,5.27
2022-12-28T02:26:30.969Z,5.40
2022-12-28T02:29:24.543Z,5.27
2022-12-28T02:32:13.597Z,4.80
2022-12-28T02:35:06.005Z,5.40
2022-12-28T02:37:52.118Z,4.80
2022-12-28T02:40:40.274Z,5.03
2022-12-28T02:43:06.627Z,5.57
2022-12-28T02:46:02.123Z,5.60
2022-12-28T02:48:57.976Z,6.00
2022-12-28T02:51:37.542Z,5.50
2022-12-28T02:54:59.558Z,5.97
2022-12-28T02:57:37.796Z,5.30
2022-12-28T03:00:21.583Z,5.60
2022-12-28T03:03:04.729Z,5.50
2022-12-28T03:06:36.963Z,5.70
2022-12-28T03:09:20.350Z,5.47
2022-12-28T03:12:12.037Z,5.47
2022-12-28T03:14:47.540Z,5.87
2022-12-28T03:17:36.000Z,5.50
2022-12-28T03:20:31.179Z,5.10
2022-12-28T03:23:23.578Z,5.37
2022-12-28T03:26:11.250Z,5.17
2022-12-28T03:29:02.297Z,5.40
2022-12-28T03:31:31.986Z,5.50
2022-12-28T03:34:05.884Z,5.80
2022-12-28T03:36:41.054Z,5.70
2022-12-28T03:39:28.386Z,5.17
2022-12-28T03:42:56.426Z,4.80
2022-12-28T03:46:16.482Z,5.70
2022-12-28T03:48:45.155Z,4.97
2022-12-28T03:51:16.351Z,5.03
2022-12-28T03:53:45.510Z,4.80
2022-12-28T03:56:15.607Z,5.47
2022-12-28T03:58:43.811Z,5.23
2022-12-28T04:01:10.901Z,4.40
2022-12-28T04:03:39.214Z,5.20
2022-12-28T04:06:07.219Z,5.13
2022-12-28T04:08:34.657Z,5.33
2022-12-28T04:11:02.456Z,4.70
2022-12-28T04:13:31.036Z,5.13
2022-12-28T04:16:09.556Z,4.70
2022-12-28T04:18:36.549Z,4.70
2022-12-28T04:21:03.348Z,5.03
2022-12-28T04:23:31.189Z,4.53
2022-12-28T04:26:19.295Z,4.60
2022-12-28T04:28:47.950Z,4.33
2022-12-28T04:31:30.771Z,4.70
2022-12-28T04:34:02.341Z,4.80
2022-12-28T04:36:32.513Z,4.40
2022-12-28T04:39:00.169Z,4.13
2022-12-28T04:41:26.645Z,4.10
2022-12-28T04:43:54.760Z,4.07
2022-12-28T04:46:21.054Z,4.30
2022-12-28T04:48:47.186Z,4.90
2022-12-28T04:51:18.969Z,4.53
2022-12-28T04:53:46.074Z,5.00
2022-12-28T04:56:13.307Z,4.63
2022-12-28T04:58:39.804Z,5.30
2022-12-28T05:01:09.891Z,5.27
2022-12-28T05:03:37.929Z,4.60
2022-12-28T05:06:08.354Z,5.33
2022-12-28T05:08:36.334Z,4.57
2022-12-28T05:11:05.868Z,4.70
2022-12-28T05:13:33.068Z,5.60
2022-12-28T05:16:09.778Z,5.23
2022-12-28T05:18:36.272Z,5.63
2022-12-28T05:21:06.815Z,5.10
2022-12-28T05:23:35.845Z,4.67
2022-12-28T05:26:02.976Z,4.93
2022-12-28T05:28:29.223Z,5.30
2022-12-28T05:31:04.732Z,4.83
2022-12-28T05:33:33.995Z,4.50
2022-12-28T05:36:10.513Z,4.30
2022-12-28T05:38:36.823Z,4.23
2022-12-28T05:41:21.465Z,4.23
2022-12-28T05:43:48.995Z,4.93
2022-12-28T05:46:27.232Z,4.63
2022-12-28T05:48:57.018Z,4.57
2022-12-28T05:51:27.146Z,4.50
2022-12-28T05:53:54.208Z,3.90
2022-12-28T05:56:24.432Z,4.70
2022-12-28T05:58:57.060Z,4.73
2022-12-28T06:01:28.150Z,3.80
2022-12-28T06:04:02.811Z,4.50
2022-12-28T06:06:30.706Z,4.03
2022-12-28T06:08:57.116Z,4.00
2022-12-28T06:11:26.817Z,4.30
2022-12-28T06:13:54.089Z,4.13
2022-12-28T06:16:28.651Z,4.30
2022-12-28T06:18:55.354Z,4.07
2022-12-28T06:21:28.633Z,4.00
2022-12-28T06:23:58.351Z,4.27
2022-12-28T06:26:26.768Z,4.20
2022-12-28T06:28:53.506Z,4.93
2022-12-28T06:31:22.861Z,4.77
2022-12-28T06:33:56.291Z,4.60
2022-12-28T06:36:26.309Z,4.60
2022-12-28T06:38:55.376Z,4.17
2022-12-28T06:41:23.051Z,4.20
2022-12-28T06:43:50.371Z,4.30
2022-12-28T06:46:19.746Z,4.10
2022-12-28T06:48:47.075Z,3.83
2022-12-28T06:51:17.071Z,4.03
2022-12-28T06:53:44.947Z,4.47
2022-12-28T06:56:24.150Z,4.00
2022-12-28T06:58:56.881Z,3.90
2022-12-28T07:01:37.822Z,3.47
2022-12-28T07:04:06.746Z,3.77
2022-12-28T07:06:42.730Z,3.80
2022-12-28T07:09:12.977Z,3.33
2022-12-28T07:11:39.187Z,3.67
2022-12-28T07:14:05.591Z,3.80
2022-12-28T07:18:59.506Z,3.57
2022-12-28T07:21:29.517Z,3.37
2022-12-28T07:23:56.940Z,3.50
2022-12-28T07:26:27.132Z,3.13
2022-12-28T07:28:56.016Z,3.40
2022-12-28T07:31:29.202Z,3.40
2022-12-28T07:33:58.447Z,3.33
2022-12-28T07:36:27.576Z,2.93
2022-12-28T07:38:54.546Z,3.67
2022-12-28T07:41:24.687Z,3.43
2022-12-28T07:43:51.515Z,3.43
2022-12-28T07:46:24.509Z,3.37
2022-12-28T07:48:52.269Z,3.20
2022-12-28T07:51:34.176Z,3.00
2022-12-28T07:54:01.294Z,3.13
2022-12-28T07:56:29.847Z,3.47
2022-12-28T07:58:59.745Z,3.90
2022-12-28T08:01:31.079Z,3.20
2022-12-28T08:04:00.676Z,3.33
2022-12-28T08:06:29.229Z,3.00
2022-12-28T08:08:59.453Z,3.13
2022-12-28T08:11:33.154Z,3.10
2022-12-28T08:14:00.747Z,3.00
2022-12-28T08:16:34.681Z,3.37
2022-12-28T08:19:01.861Z,3.63
2022-12-28T08:21:33.040Z,3.33
2022-12-28T08:24:00.121Z,3.47
2022-12-28T08:26:37.079Z,2.90
2022-12-28T08:29:08.327Z,3.10
2022-12-28T08:31:38.590Z,3.20
2022-12-28T08:34:08.168Z,2.80
2022-12-28T08:36:34.697Z,3.00
2022-12-28T08:39:02.557Z,3.20
2022-12-28T08:41:30.178Z,3.20
2022-12-28T08:43:57.582Z,2.90
2022-12-28T08:46:27.869Z,3.23
2022-12-28T08:48:56.531Z,3.37
2022-12-28T08:51:29.147Z,3.10
2022-12-28T08:53:55.714Z,2.90
2022-12-28T08:56:35.780Z,4.07
2022-12-28T08:59:03.394Z,3.00
2022-12-28T09:01:38.909Z,3.10
2022-12-28T09:04:15.919Z,2.90
2022-12-28T09:06:42.696Z,2.93
2022-12-28T09:09:14.129Z,3.33
2022-12-28T09:11:41.283Z,2.90
2022-12-28T09:14:14.465Z,2.90
2022-12-28T09:16:45.003Z,3.37
2022-12-28T09:19:14.747Z,3.07
2022-12-28T09:21:42.021Z,2.90
2022-12-28T09:24:08.250Z,3.03
2022-12-28T09:26:38.089Z,3.67
2022-12-28T09:29:09.940Z,2.73
2022-12-28T09:31:36.762Z,3.00
2022-12-28T09:36:51.730Z,2.83
2022-12-28T09:39:23.624Z,3.07
2022-12-28T09:42:02.505Z,3.30
2022-12-28T09:44:46.570Z,2.87
2022-12-28T09:47:40.365Z,2.80
2022-12-28T09:50:27.716Z,2.70
2022-12-28T09:53:06.171Z,2.60
2022-12-28T09:55:52.759Z,2.70
2022-12-28T09:58:20.844Z,2.60
2022-12-28T10:00:57.226Z,2.90
2022-12-28T10:03:31.400Z,3.13
2022-12-28T10:05:58.181Z,2.63
2022-12-28T10:08:26.906Z,2.37
2022-12-28T10:10:58.183Z,2.70
2022-12-28T10:13:54.158Z,2.40
2022-12-28T10:16:19.701Z,2.70
2022-12-28T10:18:48.109Z,2.83
2022-12-28T10:21:19.052Z,2.30
2022-12-28T10:24:29.116Z,2.10
2022-12-28T10:26:37.452Z,2.43
2022-12-28T10:29:03.722Z,2.50
2022-12-28T10:31:39.717Z,2.50
2022-12-28T10:34:22.454Z,2.73
2022-12-28T10:36:50.194Z,2.63
2022-12-28T10:39:23.920Z,2.30
2022-12-28T10:41:52.186Z,2.43
2022-12-28T10:44:40.974Z,3.13
2022-12-28T10:47:36.145Z,2.40
2022-12-28T10:50:36.185Z,2.43
2022-12-28T10:52:57.970Z,2.77
2022-12-28T10:55:42.233Z,2.40
2022-12-28T11:01:12.490Z,2.63
2022-12-28T11:03:22.150Z,2.73
2022-12-28T11:04:04.879Z,3.57
2022-12-28T11:06:51.226Z,3.30
2022-12-28T11:09:26.428Z,3.50
2022-12-28T11:12:14.221Z,4.30
2022-12-28T11:14:40.613Z,3.93
2022-12-28T11:17:24.744Z,4.73
2022-12-28T11:20:05.591Z,3.80
2022-12-28T11:22:33.059Z,3.60
2022-12-28T11:25:00.825Z,3.43
2022-12-28T11:27:28.045Z,3.27
2022-12-28T11:29:55.517Z,6.30
2022-12-28T11:32:37.346Z,5.60
2022-12-28T11:35:05.543Z,4.70
2022-12-28T11:37:31.815Z,4.13
2022-12-28T11:39:59.208Z,4.93
2022-12-28T11:42:40.426Z,4.83
2022-12-28T11:45:53.474Z,4.67
2022-12-28T11:48:40.892Z,3.90
2022-12-28T11:51:22.462Z,3.80
2022-12-28T11:53:52.325Z,3.70
2022-12-28T11:56:25.593Z,4.90
2022-12-28T11:58:57.436Z,4.10
2022-12-28T12:01:26.848Z,3.20
2022-12-28T12:03:59.120Z,5.43
2022-12-28T12:06:44.148Z,3.20
2022-12-28T12:09:23.041Z,2.80
2022-12-28T12:11:52.301Z,4.10
2022-12-28T12:14:48.091Z,4.00
2022-12-28T12:17:39.767Z,3.20
2022-12-28T12:20:35.226Z,3.03
2022-12-28T12:23:39.840Z,4.20
2022-12-28T12:26:21.572Z,4.50
2022-12-28T12:28:51.955Z,6.30
2022-12-28T12:31:33.090Z,4.57
2022-12-28T12:34:27.651Z,3.83
2022-12-28T12:37:21.170Z,3.93
2022-12-28T12:39:49.985Z,3.77
2022-12-28T12:42:57.222Z,4.27
2022-12-28T12:46:02.605Z,2.80
2022-12-28T12:49:05.765Z,3.07
2022-12-28T12:51:46.470Z,3.30
2022-12-28T12:55:10.828Z,2.63
2022-12-28T12:57:53.695Z,2.73
2022-12-28T13:00:21.989Z,3.20
2022-12-28T13:03:26.586Z,2.50
2022-12-28T13:05:57.481Z,2.87
2022-12-28T13:08:41.713Z,3.60
2022-12-28T13:11:14.201Z,3.00
2022-12-28T13:13:45.086Z,2.90
2022-12-28T13:16:19.984Z,5.77
2022-12-28T13:18:58.178Z,5.83
2022-12-28T13:21:38.713Z,3.73
2022-12-28T13:24:34.883Z,3.90
2022-12-28T13:27:06.267Z,2.97
2022-12-28T13:29:39.266Z,2.63
2022-12-28T13:32:05.446Z,2.10
2022-12-28T13:34:34.433Z,2.70
2022-12-28T13:37:13.345Z,2.40
2022-12-28T13:39:42.104Z,2.77
2022-12-28T13:42:18.342Z,3.80
2022-12-28T13:45:03.058Z,5.43
2022-12-28T13:47:43.743Z,3.67
2022-12-28T13:50:33.271Z,2.90
2022-12-28T13:53:06.604Z,2.83
2022-12-28T13:55:48.198Z,2.80
2022-12-28T13:58:22.946Z,2.50
2022-12-28T14:00:54.558Z,2.77
2022-12-28T14:03:21.521Z,3.03
2022-12-28T14:05:54.447Z,3.40
2022-12-28T14:08:22.224Z,2.80
2022-12-28T14:10:50.240Z,2.73
2022-12-28T14:13:17.989Z,2.80
2022-12-28T14:15:45.196Z,3.20
2022-12-28T14:18:17.238Z,2.70
2022-12-28T14:20:52.803Z,2.70
2022-12-28T14:23:33.807Z,3.23
2022-12-28T14:26:31.828Z,3.23
2022-12-28T14:28:58.877Z,3.13
2022-12-28T14:31:30.156Z,2.60
2022-12-28T14:34:04.158Z,3.00
2022-12-28T14:36:37.831Z,3.10
2022-12-28T14:39:05.427Z,3.07
2022-12-28T14:41:44.762Z,3.07
2022-12-28T14:44:20.999Z,2.97
2022-12-28T14:46:51.569Z,3.47
2022-12-28T14:49:30.044Z,3.10
2022-12-28T14:52:16.811Z,3.50
2022-12-28T14:54:45.729Z,3.43
2022-12-28T14:57:42.782Z,3.60
2022-12-28T15:00:28.511Z,3.20
2022-12-28T15:02:56.939Z,3.30
2022-12-28T15:05:47.623Z,2.63
2022-12-28T15:08:13.787Z,3.20
2022-12-28T15:10:47.712Z,3.23
2022-12-28T15:13:15.447Z,2.70
2022-12-28T15:15:41.614Z,2.93
2022-12-28T15:18:08.463Z,3.80
2022-12-28T15:20:38.681Z,2.90
2022-12-28T15:23:05.207Z,2.90
2022-12-28T15:25:34.997Z,2.83
2022-12-28T15:28:01.725Z,3.70
2022-12-28T15:30:29.332Z,2.90
2022-12-28T15:32:55.738Z,3.00
2022-12-28T15:35:21.970Z,2.77
2022-12-28T15:37:48.426Z,2.50
2022-12-28T15:40:14.695Z,3.47
2022-12-28T15:42:44.617Z,2.90
2022-12-28T15:45:11.846Z,3.00
2022-12-28T15:47:38.466Z,3.07
2022-12-28T15:50:05.337Z,2.87
2022-12-28T15:52:31.717Z,3.40
2022-12-28T15:54:58.649Z,3.37
2022-12-28T15:57:25.613Z,3.40
2022-12-28T15:59:54.162Z,4.07
2022-12-28T16:02:21.719Z,4.03
2022-12-28T16:04:48.049Z,3.60
2022-12-28T16:07:14.876Z,3.27
2022-12-28T16:09:41.030Z,3.63
2022-12-28T16:12:07.316Z,4.13
2022-12-28T16:14:33.499Z,3.77
2022-12-28T16:16:59.787Z,4.07
2022-12-28T16:19:25.991Z,3.27
2022-12-28T16:21:55.149Z,2.93
2022-12-28T16:24:24.958Z,3.30
2022-12-28T16:26:51.626Z,3.13
2022-12-28T16:29:18.082Z,3.33
2022-12-28T16:31:44.465Z,2.93
2022-12-28T16:34:15.656Z,3.30
2022-12-28T16:36:44.607Z,3.40
2022-12-28T16:39:15.983Z,3.10
2022-12-28T16:41:45.199Z,2.80
2022-12-28T16:44:16.579Z,2.97
2022-12-28T16:46:43.017Z,2.90
2022-12-28T16:49:10.531Z,3.10
2022-12-28T16:51:43.138Z,3.23
2022-12-28T16:54:19.572Z,2.90
2022-12-28T16:56:47.820Z,3.10
2022-12-28T16:59:24.926Z,2.83
2022-12-28T17:01:56.501Z,2.80
2022-12-28T17:04:22.819Z,3.13
2022-12-28T17:06:50.943Z,3.20
2022-12-28T17:09:18.733Z,3.27
2022-12-28T17:11:49.917Z,3.20
2022-12-28T17:14:29.145Z,3.07
2022-12-28T17:17:01.987Z,2.60
2022-12-28T17:19:28.497Z,3.17
2022-12-28T17:21:54.633Z,2.97
2022-12-28T17:24:20.793Z,3.07
2022-12-28T17:26:46.909Z,3.10
2022-12-28T17:29:13.110Z,2.70
2022-12-28T17:31:40.224Z,2.90
2022-12-28T17:34:06.445Z,3.43
2022-12-28T17:36:32.559Z,3.10
2022-12-28T17:38:58.778Z,3.60
2022-12-28T17:41:26.753Z,2.77
2022-12-28T17:43:56.243Z,2.70
2022-12-28T17:46:27.693Z,2.90
2022-12-28T17:48:56.811Z,2.80
2022-12-28T17:51:24.757Z,2.50
2022-12-28T17:53:54.286Z,2.30
2022-12-28T17:56:20.574Z,2.90
2022-12-28T17:58:48.579Z,3.10
2022-12-28T18:01:15.027Z,2.70
2022-12-28T18:03:41.246Z,3.20
2022-12-28T18:06:07.474Z,2.30
2022-12-28T18:08:33.912Z,2.90
2022-12-28T18:11:00.883Z,3.07
2022-12-28T18:13:27.008Z,2.80
2022-12-28T18:15:53.161Z,3.10
2022-12-28T18:18:19.392Z,2.80
2022-12-28T18:20:59.513Z,2.53
2022-12-28T18:23:27.351Z,2.63
2022-12-28T18:26:05.057Z,2.67
2022-12-28T18:28:33.209Z,2.67
2022-12-28T18:31:02.497Z,2.57
2022-12-28T18:33:30.327Z,3.13
2022-12-28T18:35:57.580Z,3.23
2022-12-28T18:38:23.821Z,2.90
2022-12-28T18:40:56.349Z,2.83
2022-12-28T18:43:23.540Z,2.60
2022-12-28T18:45:58.542Z,3.13
2022-12-28T18:48:25.814Z,2.90
2022-12-28T18:50:57.419Z,3.20
2022-12-28T18:53:26.309Z,3.53
2022-12-28T18:56:06.263Z,2.80
2022-12-28T18:58:36.409Z,3.03
2022-12-28T19:01:25.998Z,2.77
2022-12-28T19:03:59.847Z,4.03
2022-12-28T19:06:26.140Z,3.30
2022-12-28T19:08:52.764Z,3.10
2022-12-28T19:11:18.909Z,3.00
2022-12-28T19:13:45.022Z,3.77
2022-12-28T19:16:16.491Z,2.73
2022-12-28T19:18:42.730Z,3.53
2022-12-28T19:21:36.092Z,3.33
2022-12-28T19:24:12.199Z,3.23
2022-12-28T19:26:38.647Z,3.07
2022-12-28T19:29:06.032Z,3.47
2022-12-28T19:31:33.951Z,3.13
2022-12-28T19:34:00.154Z,2.97
2022-12-28T19:36:26.584Z,3.27
2022-12-28T19:38:54.590Z,3.20
2022-12-28T19:41:21.257Z,3.30
2022-12-28T19:43:47.909Z,3.83
2022-12-28T19:46:17.895Z,2.90
2022-12-28T19:48:44.764Z,3.00
2022-12-28T19:51:11.795Z,3.20
2022-12-28T19:53:37.997Z,3.07
2022-12-28T19:56:07.996Z,3.60
2022-12-28T19:58:36.472Z,3.43
2022-12-28T20:01:08.917Z,3.43
2022-12-28T20:03:35.898Z,3.17
2022-12-28T20:06:11.854Z,3.10
2022-12-28T20:08:39.112Z,3.37
2022-12-28T20:11:06.359Z,3.50
2022-12-28T20:13:33.732Z,2.93
2022-12-28T20:16:00.030Z,3.17
2022-12-28T20:18:26.224Z,3.07
2022-12-28T20:21:18.675Z,3.20
2022-12-28T20:23:38.481Z,2.63
2022-12-28T20:26:04.859Z,3.50
2022-12-28T20:28:31.161Z,3.07
2022-12-28T20:31:06.054Z,3.40
2022-12-28T20:33:34.681Z,2.90
2022-12-28T20:36:08.204Z,2.63
2022-12-28T20:38:34.482Z,2.77
2022-12-28T20:41:38.185Z,3.10
2022-12-28T20:44:15.097Z,2.77
2022-12-28T20:46:43.185Z,3.03
2022-12-28T20:49:10.066Z,2.47
2022-12-28T20:51:36.930Z,3.10
2022-12-28T20:54:03.233Z,2.93
2022-12-28T20:56:29.749Z,2.70
2022-12-28T20:58:56.345Z,2.80
2022-12-28T21:01:22.577Z,2.90
2022-12-28T21:03:48.794Z,2.73
2022-12-28T21:06:14.974Z,2.97
2022-12-28T21:08:41.117Z,3.00
2022-12-28T21:11:07.572Z,2.87
2022-12-28T21:13:33.676Z,2.70
2022-12-28T21:16:06.331Z,3.13
2022-12-28T21:18:32.634Z,3.03
2022-12-28T21:20:59.437Z,3.30
2022-12-28T21:23:28.027Z,3.10
2022-12-28T21:26:05.762Z,3.00
2022-12-28T21:28:33.885Z,3.10
2022-12-28T21:31:02.790Z,3.70
2022-12-28T21:33:28.940Z,3.10
2022-12-28T21:35:58.669Z,3.10
2022-12-28T21:38:24.865Z,3.10
2022-12-28T21:40:57.960Z,3.07
2022-12-28T21:43:24.137Z,3.30
2022-12-28T21:46:10.162Z,3.27
2022-12-28T21:48:37.822Z,2.70
2022-12-28T21:51:28.048Z,3.00
2022-12-28T21:53:55.311Z,3.37
2022-12-28T21:56:21.441Z,3.00
2022-12-28T21:58:48.832Z,3.20
2022-12-28T22:01:34.531Z,3.30
2022-12-28T22:04:23.603Z,2.80
2022-12-28T22:06:49.973Z,2.57
2022-12-28T22:09:34.433Z,2.97
2022-12-28T22:12:38.875Z,2.93
2022-12-28T22:15:33.856Z,3.13
2022-12-28T22:18:04.694Z,2.73
2022-12-28T22:20:32.518Z,2.60
2022-12-28T22:23:00.769Z,2.80
2022-12-28T22:25:29.240Z,2.70
2022-12-28T22:27:56.110Z,2.20
2022-12-28T22:30:22.843Z,2.70
2022-12-28T22:32:49.026Z,2.17
2022-12-28T22:35:16.216Z,2.60
2022-12-28T22:37:42.317Z,2.67
2022-12-28T22:40:11.133Z,2.67
2022-12-28T22:42:46.155Z,2.70
2022-12-28T22:45:19.513Z,2.83
2022-12-28T22:47:46.628Z,2.50
2022-12-28T22:50:15.963Z,2.50
2022-12-28T22:52:42.611Z,2.70
2022-12-28T22:55:09.353Z,2.60
2022-12-28T22:57:35.640Z,2.30
2022-12-28T23:00:03.138Z,2.10
2022-12-28T23:02:29.857Z,2.23
2022-12-28T23:04:56.146Z,2.30
2022-12-28T23:07:22.301Z,2.53
2022-12-28T23:09:48.442Z,2.13
2022-12-28T23:12:14.537Z,2.20
2022-12-28T23:14:58.968Z,2.20
2022-12-28T23:17:25.880Z,2.27
2022-12-28T23:20:10.501Z,1.90
2022-12-28T23:22:55.418Z,2.33
2022-12-28T23:25:43.549Z,2.00
2022-12-28T23:28:14.099Z,1.80
2022-12-28T23:30:46.010Z,1.70
2022-12-28T23:33:12.673Z,1.60
2022-12-28T23:35:38.831Z,2.10
2022-12-28T23:38:04.965Z,1.90
2022-12-28T23:40:31.121Z,1.63
2022-12-28T23:42:57.245Z,1.90
2022-12-28T23:45:23.463Z,1.80
2022-12-28T23:47:52.684Z,1.90
2022-12-28T23:50:19.246Z,1.70
2022-12-28T23:52:45.848Z,1.73
2022-12-28T23:55:12.036Z,1.80
2022-12-28T23:57:38.384Z,2.00
